createdAt,value
2022-11-15T00:01:24.892Z,36.22
2022-11-15T00:03:55.631Z,39.10
2022-11-15T00:06:25.637Z,40.67
2022-11-15T00:08:52.472Z,37.30
2022-11-15T00:11:22.212Z,37.28
2022-11-15T00:13:48.825Z,33.53
2022-11-15T00:16:16.171Z,36.33
2022-11-15T00:18:47.795Z,37.63
2022-11-15T00:21:18.170Z,35.90
2022-11-15T00:23:44.789Z,36.67
2022-11-15T00:26:16.177Z,38.30
2022-11-15T00:28:43.304Z,38.75
2022-11-15T00:31:13.796Z,38.55
2022-11-15T00:33:40.653Z,35.03
2022-11-15T00:36:13.662Z,38.65
2022-11-15T00:38:41.401Z,39.65
2022-11-15T00:41:10.331Z,39.63
2022-11-15T00:43:37.353Z,38.95
2022-11-15T00:46:04.081Z,37.05
2022-11-15T00:48:31.784Z,37.78
2022-11-15T00:50:58.886Z,39.15
2022-11-15T00:53:25.448Z,37.90
2022-11-15T00:55:52.157Z,39.00
2022-11-15T00:58:20.165Z,39.28
2022-11-15T01:00:47.696Z,36.17
2022-11-15T01:03:14.392Z,39.13
2022-11-15T01:05:40.994Z,36.20
2022-11-15T01:08:12.751Z,35.38
2022-11-15T01:10:41.342Z,37.17
2022-11-15T01:13:07.968Z,33.72
2022-11-15T01:15:34.681Z,37.10
2022-11-15T01:18:01.305Z,36.78
2022-11-15T01:20:27.902Z,36.42
2022-11-15T01:22:55.189Z,32.55
2022-11-15T01:25:21.784Z,33.03
2022-11-15T01:27:48.508Z,35.15
2022-11-15T01:30:15.373Z,31.45
2022-11-15T01:32:42.002Z,34.08
2022-11-15T01:35:09.047Z,35.63
2022-11-15T01:37:36.398Z,33.90
2022-11-15T01:40:03.124Z,34.58
2022-11-15T01:42:29.737Z,33.80
2022-11-15T01:44:56.447Z,34.08
2022-11-15T01:47:29.192Z,35.40
2022-11-15T01:50:03.729Z,34.80
2022-11-15T01:52:32.577Z,33.33
2022-11-15T01:55:05.907Z,32.20
2022-11-15T01:57:32.713Z,34.70
2022-11-15T02:00:01.607Z,34.47
2022-11-15T02:02:28.705Z,34.38
2022-11-15T02:04:55.375Z,34.38
2022-11-15T02:07:23.235Z,34.50
2022-11-15T02:09:51.893Z,33.33
2022-11-15T02:12:22.393Z,35.97
2022-11-15T02:14:54.566Z,33.70
2022-11-15T02:17:50.920Z,34.78
2022-11-15T02:20:48.389Z,35.58
2022-11-15T02:23:58.031Z,38.97
2022-11-15T02:26:40.823Z,42.05
2022-11-15T02:29:16.698Z,39.53
2022-11-15T02:31:45.987Z,39.97
2022-11-15T02:34:42.558Z,39.75
2022-11-15T02:37:30.319Z,35.90
2022-11-15T02:40:12.678Z,36.97
2022-11-15T02:43:08.548Z,35.83
2022-11-15T02:45:42.765Z,35.67
2022-11-15T02:48:11.098Z,35.92
2022-11-15T02:50:38.079Z,34.55
2022-11-15T02:53:04.906Z,33.28
2022-11-15T02:55:34.394Z,34.45
2022-11-15T02:58:48.203Z,34.70
2022-11-15T03:01:23.619Z,35.15
2022-11-15T03:03:56.067Z,45.05
2022-11-15T03:06:39.271Z,35.10
2022-11-15T03:09:32.889Z,36.45
2022-11-15T03:12:09.785Z,33.05
2022-11-15T03:14:44.154Z,35.33
2022-11-15T03:17:31.817Z,39.20
2022-11-15T03:20:01.701Z,34.83
2022-11-15T03:22:30.863Z,34.47
2022-11-15T03:25:01.960Z,35.88
2022-11-15T03:27:37.017Z,35.85
2022-11-15T03:30:07.453Z,33.20
2022-11-15T03:32:43.153Z,33.08
2022-11-15T03:35:14.778Z,35.25
2022-11-15T03:37:50.838Z,39.88
2022-11-15T03:40:18.837Z,35.95
2022-11-15T03:43:15.188Z,32.88
2022-11-15T03:45:51.198Z,36.05
2022-11-15T03:48:34.927Z,34.20
2022-11-15T03:51:02.351Z,36.42
2022-11-15T03:53:29.988Z,41.85
2022-11-15T03:55:56.792Z,37.88
2022-11-15T03:58:23.359Z,38.60
2022-11-15T04:00:51.390Z,36.55
2022-11-15T04:03:17.982Z,31.58
2022-11-15T04:05:44.544Z,36.88
2022-11-15T04:08:11.237Z,34.67
2022-11-15T04:10:39.148Z,36.70
2022-11-15T04:13:06.071Z,36.08
2022-11-15T04:15:33.039Z,41.92
2022-11-15T04:17:59.734Z,39.55
2022-11-15T04:20:50.599Z,34.35
2022-11-15T04:23:38.571Z,37.80
2022-11-15T04:26:12.368Z,36.40
2022-11-15T04:28:59.598Z,37.85
2022-11-15T04:31:26.319Z,34.65
2022-11-15T04:33:53.727Z,38.20
2022-11-15T04:36:39.922Z,34.38
2022-11-15T04:39:06.753Z,33.15
2022-11-15T04:41:33.829Z,39.05
2022-11-15T04:44:00.472Z,41.25
2022-11-15T04:46:27.360Z,50.47
2022-11-15T04:48:58.626Z,31.70
2022-11-15T04:51:26.333Z,36.42
2022-11-15T04:53:53.117Z,33.53
2022-11-15T04:56:20.477Z,37.55
2022-11-15T04:58:50.088Z,35.47
2022-11-15T05:01:18.613Z,36.38
2022-11-15T05:04:05.535Z,32.13
2022-11-15T05:06:32.701Z,37.33
2022-11-15T05:08:59.431Z,40.05
2022-11-15T05:11:26.804Z,39.65
2022-11-15T05:13:53.417Z,34.50
2022-11-15T05:16:20.032Z,36.25
2022-11-15T05:18:46.775Z,33.22
2022-11-15T05:21:16.379Z,37.15
2022-11-15T05:23:43.024Z,35.75
2022-11-15T05:26:10.401Z,33.58
2022-11-15T05:28:38.165Z,35.75
2022-11-15T05:31:10.345Z,36.70
2022-11-15T05:33:41.879Z,30.98
2022-11-15T05:36:10.963Z,32.03
2022-11-15T05:38:38.519Z,32.63
2022-11-15T05:41:06.586Z,33.50
2022-11-15T05:43:36.376Z,32.65
2022-11-15T05:46:05.313Z,30.25
2022-11-15T05:48:34.054Z,30.85
2022-11-15T05:51:01.973Z,32.90
2022-11-15T05:53:29.409Z,31.58
2022-11-15T05:55:56.249Z,31.40
2022-11-15T05:58:24.387Z,34.10
2022-11-15T06:00:51.064Z,33.97
2022-11-15T06:03:17.971Z,37.42
2022-11-15T06:05:44.672Z,36.90
2022-11-15T06:08:12.637Z,34.15
2022-11-15T06:10:39.259Z,34.90
2022-11-15T06:13:06.074Z,39.33
2022-11-15T06:15:35.888Z,34.63
2022-11-15T06:18:02.616Z,33.15
2022-11-15T06:20:30.454Z,28.20
2022-11-15T06:23:03.617Z,29.77
2022-11-15T06:25:31.225Z,35.70
2022-11-15T06:27:59.894Z,33.88
2022-11-15T06:30:27.627Z,34.13
2022-11-15T06:33:05.556Z,35.60
2022-11-15T06:35:35.278Z,34.58
2022-11-15T06:38:07.498Z,33.28
2022-11-15T06:40:36.405Z,27.85
2022-11-15T06:43:04.392Z,35.63
2022-11-15T06:45:31.668Z,34.17
2022-11-15T06:47:59.344Z,33.47
2022-11-15T06:50:27.025Z,40.22
2022-11-15T06:52:53.852Z,40.83
2022-11-15T06:55:21.717Z,40.65
2022-11-15T06:57:50.467Z,41.75
2022-11-15T07:00:19.841Z,39.05
2022-11-15T07:02:47.491Z,40.42
2022-11-15T07:05:14.883Z,31.95
2022-11-15T07:07:41.819Z,32.28
2022-11-15T07:10:09.775Z,35.55
2022-11-15T07:12:36.717Z,32.25
2022-11-15T07:15:03.689Z,34.95
2022-11-15T07:17:31.692Z,35.45
2022-11-15T07:19:59.517Z,33.38
2022-11-15T07:22:26.134Z,33.63
2022-11-15T07:24:52.888Z,31.98
2022-11-15T07:27:19.728Z,34.60
2022-11-15T07:29:46.654Z,32.53
2022-11-15T07:32:13.586Z,30.90
2022-11-15T07:34:40.292Z,29.80
2022-11-15T07:37:06.908Z,30.30
2022-11-15T07:39:33.568Z,27.98
2022-11-15T07:42:21.741Z,25.63
2022-11-15T07:44:48.498Z,25.67
2022-11-15T07:47:15.268Z,25.13
2022-11-15T07:49:41.906Z,25.92
2022-11-15T07:52:08.553Z,26.35
2022-11-15T07:54:35.233Z,25.65
2022-11-15T07:57:06.975Z,25.80
2022-11-15T07:59:35.794Z,27.63
2022-11-15T08:02:02.978Z,30.63
2022-11-15T08:04:29.866Z,27.38
2022-11-15T08:06:56.642Z,26.23
2022-11-15T08:09:23.290Z,29.98
2022-11-15T08:11:49.906Z,28.40
2022-11-15T08:14:16.491Z,28.67
2022-11-15T08:16:43.074Z,28.70
2022-11-15T08:19:09.711Z,28.35
2022-11-15T08:21:36.345Z,25.90
2022-11-15T08:24:03.345Z,24.25
2022-11-15T08:26:31.116Z,23.98
2022-11-15T08:28:57.746Z,24.45
2022-11-15T08:31:24.423Z,23.90
2022-11-15T08:33:52.286Z,22.75
2022-11-15T08:36:19.096Z,23.38
2022-11-15T08:38:45.715Z,21.30
2022-11-15T08:41:23.072Z,22.88
2022-11-15T08:43:49.679Z,22.88
2022-11-15T08:46:16.505Z,22.73
2022-11-15T08:48:43.114Z,22.95
2022-11-15T08:51:10.034Z,20.77
2022-11-15T08:53:38.593Z,21.45
2022-11-15T08:56:10.255Z,21.50
2022-11-15T08:58:37.612Z,22.73
2022-11-15T09:01:05.503Z,22.35
2022-11-15T09:03:32.434Z,22.60
2022-11-15T09:06:01.246Z,23.25
2022-11-15T09:08:48.140Z,22.80
2022-11-15T09:11:17.667Z,23.38
2022-11-15T09:13:44.361Z,22.95
2022-11-15T09:16:13.393Z,21.23
2022-11-15T09:18:39.987Z,20.70
2022-11-15T09:21:06.568Z,21.83
2022-11-15T09:23:33.152Z,20.95
2022-11-15T09:26:05.505Z,19.88
2022-11-15T09:28:34.130Z,19.95
2022-11-15T09:31:04.503Z,20.00
2022-11-15T09:33:31.767Z,19.50
2022-11-15T09:36:03.901Z,18.83
2022-11-15T09:38:31.030Z,19.63
2022-11-15T09:41:15.747Z,19.20
2022-11-15T09:44:07.164Z,19.73
2022-11-15T09:46:36.481Z,18.58
2022-11-15T09:49:03.767Z,18.67
2022-11-15T09:51:34.643Z,18.80
2022-11-15T09:57:16.464Z,19.15
2022-11-15T10:00:12.428Z,19.45
2022-11-15T10:03:02.147Z,20.15
2022-11-15T10:05:32.545Z,19.23
2022-11-15T10:08:19.373Z,19.55
2022-11-15T10:10:50.220Z,20.13
2022-11-15T10:13:26.373Z,19.15
2022-11-15T10:15:55.789Z,19.63
2022-11-15T10:18:34.456Z,18.80
2022-11-15T10:21:14.336Z,19.48
2022-11-15T10:23:40.943Z,18.63
2022-11-15T10:26:12.514Z,19.15
2022-11-15T10:28:39.255Z,19.30
2022-11-15T10:31:23.375Z,19.05
2022-11-15T10:33:50.479Z,20.63
2022-11-15T10:36:26.697Z,19.75
2022-11-15T10:38:54.798Z,21.02
2022-11-15T10:41:31.976Z,20.00
2022-11-15T10:44:07.832Z,18.80
2022-11-15T10:46:47.400Z,19.52
2022-11-15T10:49:33.934Z,20.58
2022-11-15T10:54:46.360Z,19.77
2022-11-15T10:57:18.570Z,16.58
2022-11-15T10:59:56.960Z,19.10
2022-11-15T11:02:35.235Z,19.20
2022-11-15T11:05:24.633Z,19.23
2022-11-15T11:08:20.018Z,19.23
2022-11-15T11:11:02.792Z,19.50
2022-11-15T11:13:32.714Z,19.13
2022-11-15T11:16:14.619Z,20.48
2022-11-15T11:18:41.491Z,18.52
2022-11-15T11:21:15.553Z,21.15
2022-11-15T11:24:06.602Z,16.52
2022-11-15T11:27:08.888Z,19.98
2022-11-15T11:29:50.928Z,17.17
2022-11-15T11:32:30.614Z,18.00
2022-11-15T11:35:23.967Z,17.48
2022-11-15T11:38:33.944Z,17.38
2022-11-15T11:41:05.408Z,15.65
2022-11-15T11:43:54.166Z,15.02
2022-11-15T11:46:39.058Z,14.90
2022-11-15T11:49:11.717Z,15.20
2022-11-15T11:51:46.965Z,15.02
2022-11-15T11:54:31.905Z,16.20
2022-11-15T11:57:02.108Z,16.50
2022-11-15T12:00:18.755Z,15.23
2022-11-15T12:03:01.512Z,14.50
2022-11-15T12:05:38.664Z,13.52
2022-11-15T12:08:46.877Z,13.18
2022-11-15T12:11:44.310Z,13.00
2022-11-15T12:14:40.360Z,13.00
2022-11-15T12:17:11.265Z,13.43
2022-11-15T12:19:38.325Z,11.10
2022-11-15T12:22:13.041Z,10.93
2022-11-15T12:24:44.867Z,12.30
2022-11-15T12:27:32.367Z,10.93
2022-11-15T12:30:03.839Z,10.60
2022-11-15T12:32:40.807Z,11.50
2022-11-15T12:35:24.401Z,10.88
2022-11-15T12:37:56.266Z,11.70
2022-11-15T12:40:31.757Z,11.98
2022-11-15T12:43:00.894Z,13.55
2022-11-15T12:45:34.646Z,13.07
2022-11-15T12:48:17.366Z,12.43
2022-11-15T12:50:56.071Z,11.90
2022-11-15T12:53:25.680Z,11.32
2022-11-15T12:56:14.193Z,12.63
2022-11-15T12:59:02.214Z,12.00
2022-11-15T13:01:31.916Z,12.13
2022-11-15T13:04:20.542Z,10.90
2022-11-15T13:06:48.534Z,11.45
2022-11-15T13:09:33.542Z,11.25
2022-11-15T13:12:03.894Z,11.10
2022-11-15T13:14:46.147Z,11.20
2022-11-15T13:17:33.898Z,11.40
2022-11-15T13:20:08.397Z,10.27
2022-11-15T13:22:52.510Z,11.00
2022-11-15T13:25:20.329Z,10.23
2022-11-15T13:27:49.839Z,10.10
2022-11-15T13:30:30.800Z,10.60
2022-11-15T13:33:01.769Z,9.52
2022-11-15T13:35:31.529Z,10.40
2022-11-15T13:38:05.166Z,10.63
2022-11-15T13:40:40.117Z,10.50
2022-11-15T13:43:25.585Z,11.18
2022-11-15T13:46:10.758Z,12.60
2022-11-15T13:48:37.779Z,12.18
2022-11-15T13:51:09.794Z,11.52
2022-11-15T13:53:41.210Z,10.82
2022-11-15T13:56:08.587Z,9.90
2022-11-15T13:58:40.096Z,10.43
2022-11-15T14:01:07.377Z,10.77
2022-11-15T14:03:48.232Z,10.98
2022-11-15T14:06:21.679Z,25.17
2022-11-15T14:09:10.324Z,20.50
2022-11-15T14:11:37.628Z,30.02
2022-11-15T14:14:10.237Z,26.27
2022-11-15T14:16:39.053Z,21.25
2022-11-15T14:19:07.802Z,33.13
2022-11-15T14:21:34.702Z,15.95
2022-11-15T14:24:22.636Z,11.52
2022-11-15T14:26:49.656Z,11.18
2022-11-15T14:29:28.169Z,11.60
2022-11-15T14:32:06.629Z,15.43
2022-11-15T14:34:36.179Z,14.13
2022-11-15T14:37:02.787Z,15.52
2022-11-15T14:39:29.428Z,11.40
2022-11-15T14:41:56.053Z,12.10
2022-11-15T14:44:23.956Z,10.95
2022-11-15T14:46:50.591Z,13.90
2022-11-15T14:49:17.419Z,14.23
2022-11-15T14:51:44.123Z,14.20
2022-11-15T14:54:11.799Z,13.27
2022-11-15T14:56:38.506Z,13.35
2022-11-15T14:59:05.223Z,13.63
2022-11-15T15:01:31.844Z,12.98
2022-11-15T15:03:59.645Z,13.60
2022-11-15T15:06:26.595Z,13.82
2022-11-15T15:08:53.240Z,13.95
2022-11-15T15:11:26.264Z,14.35
2022-11-15T15:13:55.137Z,14.82
2022-11-15T15:16:21.683Z,15.25
2022-11-15T15:18:48.927Z,16.65
2022-11-15T15:21:22.991Z,15.48
2022-11-15T15:23:50.136Z,17.13
2022-11-15T15:26:16.723Z,20.25
2022-11-15T15:28:43.524Z,16.98
2022-11-15T15:31:11.217Z,19.67
2022-11-15T15:33:38.450Z,20.40
2022-11-15T15:36:05.475Z,20.20
2022-11-15T15:38:33.783Z,19.83
2022-11-15T15:41:03.008Z,20.02
2022-11-15T15:43:31.117Z,22.85
2022-11-15T15:45:57.786Z,24.70
2022-11-15T15:48:24.809Z,25.50
2022-11-15T15:50:52.778Z,24.35
2022-11-15T15:53:19.433Z,25.42
2022-11-15T15:55:46.066Z,21.38
2022-11-15T15:58:15.093Z,20.15
2022-11-15T16:00:41.815Z,20.13
2022-11-15T16:03:11.389Z,21.55
2022-11-15T16:05:38.031Z,17.75
2022-11-15T16:08:05.522Z,20.10
2022-11-15T16:10:35.258Z,20.08
2022-11-15T16:13:01.945Z,24.13
2022-11-15T16:15:31.654Z,20.60
2022-11-15T16:18:00.188Z,21.08
2022-11-15T16:20:36.922Z,20.90
2022-11-15T16:23:08.934Z,33.10
2022-11-15T16:25:46.658Z,29.08
2022-11-15T16:28:26.523Z,28.83
2022-11-15T16:31:19.469Z,27.38
2022-11-15T16:33:46.821Z,26.40
2022-11-15T16:36:29.508Z,27.42
2022-11-15T16:38:56.410Z,26.83
2022-11-15T16:41:23.081Z,26.15
2022-11-15T16:43:49.756Z,26.52
2022-11-15T16:46:24.848Z,30.17
2022-11-15T16:48:52.455Z,41.22
2022-11-15T16:51:19.002Z,31.13
2022-11-15T16:53:45.715Z,26.25
2022-11-15T16:56:21.262Z,24.90
2022-11-15T16:58:48.036Z,21.13
2022-11-15T17:01:20.972Z,20.83
2022-11-15T17:03:47.808Z,21.80
2022-11-15T17:06:15.338Z,19.60
2022-11-15T17:08:42.287Z,21.20
2022-11-15T17:11:09.414Z,22.85
2022-11-15T17:13:36.343Z,22.27
2022-11-15T17:16:07.678Z,22.70
2022-11-15T17:18:35.381Z,21.13
2022-11-15T17:21:25.870Z,23.55
2022-11-15T17:23:54.854Z,23.63
2022-11-15T17:26:29.885Z,28.27
2022-11-15T17:29:00.387Z,30.33
2022-11-15T17:31:27.419Z,28.08
2022-11-15T17:33:54.081Z,31.55
2022-11-15T17:36:21.200Z,28.27
2022-11-15T17:38:57.951Z,27.30
2022-11-15T17:41:28.429Z,32.75
2022-11-15T17:44:00.449Z,32.25
2022-11-15T17:46:28.623Z,33.55
2022-11-15T17:48:56.287Z,34.30
2022-11-15T17:51:24.233Z,32.53
2022-11-15T17:53:51.682Z,29.02
2022-11-15T17:56:21.999Z,28.05
2022-11-15T17:58:58.471Z,24.85
2022-11-15T18:01:26.470Z,24.60
2022-11-15T18:03:54.047Z,26.52
2022-11-15T18:06:22.950Z,24.17
2022-11-15T18:08:51.984Z,27.98
2022-11-15T18:11:43.323Z,29.80
2022-11-15T18:14:15.381Z,28.23
2022-11-15T18:16:42.642Z,28.88
2022-11-15T18:19:13.421Z,31.88
2022-11-15T18:22:01.013Z,30.52
2022-11-15T18:24:31.988Z,31.98
2022-11-15T18:27:00.041Z,32.53
2022-11-15T18:29:27.242Z,31.90
2022-11-15T18:31:57.700Z,34.33
2022-11-15T18:34:27.149Z,33.58
2022-11-15T18:36:53.982Z,35.60
2022-11-15T18:39:20.809Z,32.60
2022-11-15T18:41:49.254Z,35.38
2022-11-15T18:44:16.308Z,38.13
2022-11-15T18:47:04.467Z,41.65
2022-11-15T18:49:31.104Z,39.97
2022-11-15T18:51:57.828Z,40.20
2022-11-15T18:59:37.821Z,40.53
2022-11-15T19:02:05.570Z,41.58
2022-11-15T19:04:32.314Z,38.08
2022-11-15T19:06:59.013Z,38.85
2022-11-15T19:09:32.810Z,40.35
2022-11-15T19:11:59.711Z,43.33
2022-11-15T19:14:27.856Z,40.55
2022-11-15T19:17:14.518Z,41.95
2022-11-15T19:19:41.253Z,43.85
2022-11-15T19:22:09.225Z,49.65
2022-11-15T19:24:58.942Z,47.08
2022-11-15T19:27:25.619Z,47.88
2022-11-15T19:29:52.219Z,49.38
2022-11-15T19:32:18.815Z,46.58
2022-11-15T19:34:46.448Z,46.42
2022-11-15T19:37:13.036Z,45.85
2022-11-15T19:39:41.236Z,46.60
2022-11-15T19:42:08.218Z,48.05
2022-11-15T19:44:34.816Z,48.72
2022-11-15T19:47:01.447Z,45.85
2022-11-15T19:49:28.089Z,43.42
2022-11-15T19:51:54.778Z,61.58
2022-11-15T19:54:21.477Z,56.42
2022-11-15T19:56:48.115Z,49.83
2022-11-15T19:59:15.378Z,49.33
2022-11-15T20:01:42.747Z,49.78
2022-11-15T20:04:10.376Z,45.05
2022-11-15T20:06:40.875Z,46.08
2022-11-15T20:09:07.998Z,46.78
2022-11-15T20:11:34.746Z,46.63
2022-11-15T20:14:02.456Z,48.53
2022-11-15T20:16:29.673Z,48.22
2022-11-15T20:18:56.393Z,47.85
2022-11-15T20:21:23.566Z,48.08
2022-11-15T20:23:51.126Z,47.92
2022-11-15T20:26:19.783Z,49.20
2022-11-15T20:28:50.356Z,49.42
2022-11-15T20:31:19.827Z,47.13
2022-11-15T20:33:54.649Z,47.60
2022-11-15T20:36:21.806Z,46.28
2022-11-15T20:39:04.118Z,49.40
2022-11-15T20:41:32.184Z,51.97
2022-11-15T20:43:59.762Z,50.55
2022-11-15T20:46:35.066Z,51.47
2022-11-15T20:49:01.897Z,57.10
2022-11-15T20:51:28.679Z,55.20
2022-11-15T20:53:56.338Z,50.00
2022-11-15T20:56:23.790Z,51.47
2022-11-15T20:58:55.724Z,50.55
2022-11-15T21:01:25.228Z,52.35
2022-11-15T21:03:56.575Z,59.30
2022-11-15T21:06:24.769Z,48.55
2022-11-15T21:09:12.132Z,51.55
2022-11-15T21:11:58.267Z,55.50
2022-11-15T21:14:25.078Z,51.65
2022-11-15T21:16:53.338Z,48.83
2022-11-15T21:22:03.595Z,50.92
2022-11-15T21:24:30.588Z,48.15
2022-11-15T21:27:01.587Z,47.58
2022-11-15T21:29:29.222Z,42.47
2022-11-15T21:31:56.930Z,45.63
2022-11-15T21:34:24.006Z,42.20
2022-11-15T21:36:51.111Z,41.08
2022-11-15T21:39:17.826Z,41.72
2022-11-15T21:41:47.093Z,42.03
2022-11-15T21:44:14.966Z,42.50
2022-11-15T21:46:43.253Z,41.65
2022-11-15T21:49:10.432Z,38.08
2022-11-15T21:54:19.897Z,43.50
2022-11-15T21:56:47.821Z,42.20
2022-11-15T21:59:16.159Z,44.33
2022-11-15T22:02:15.195Z,43.25
2022-11-15T22:08:19.681Z,44.47
2022-11-15T22:13:57.255Z,48.30
2022-11-15T22:16:24.396Z,43.55
2022-11-15T22:18:54.111Z,42.70
2022-11-15T22:21:21.570Z,44.05
2022-11-15T22:23:48.547Z,44.35
2022-11-15T22:26:23.000Z,43.42
2022-11-15T22:28:50.760Z,43.45
2022-11-15T22:31:18.108Z,43.92
2022-11-15T22:33:45.214Z,45.30
2022-11-15T22:36:16.009Z,43.10
2022-11-15T22:38:43.709Z,46.65
2022-11-15T22:41:11.166Z,62.08
2022-11-15T22:43:38.280Z,67.22
2022-11-15T22:46:06.668Z,70.55
2022-11-15T22:48:37.500Z,57.55
2022-11-15T22:51:05.966Z,66.47
2022-11-15T22:53:33.396Z,62.80
2022-11-15T22:56:02.975Z,52.42
2022-11-15T22:58:33.223Z,50.95
2022-11-15T23:01:03.312Z,49.15
2022-11-15T23:03:34.659Z,46.33
2022-11-15T23:06:06.545Z,44.75
2022-11-15T23:08:34.631Z,44.70
2022-11-15T23:11:26.460Z,44.13
2022-11-15T23:13:55.987Z,43.25
2022-11-15T23:16:23.546Z,40.17
2022-11-15T23:19:17.654Z,46.78
2022-11-15T23:22:05.600Z,41.97
2022-11-15T23:24:33.964Z,40.50
2022-11-15T23:27:05.034Z,39.58
2022-11-15T23:29:31.984Z,39.40
2022-11-15T23:32:19.940Z,42.67
2022-11-15T23:35:06.909Z,41.17
2022-11-15T23:37:33.884Z,42.63
2022-11-15T23:40:01.845Z,42.40
2022-11-15T23:42:28.983Z,42.97
2022-11-15T23:44:56.032Z,41.97
2022-11-15T23:47:23.010Z,39.33
2022-11-15T23:49:50.738Z,42.95
2022-11-15T23:52:19.177Z,42.88
2022-11-15T23:54:48.209Z,42.88
2022-11-15T23:57:18.267Z,45.72
2022-11-15T23:59:45.671Z,49.55
